Biotrans — JWPN — position and weather

sailwx.info

Track history (hours):
 
Tides and Currents Weather Stations Pressure Air Temp Water Temp Dewpoint Dewpoint Depression Visibility Wind Speed Wind Dir Waves Ship Positions

Biotrans

Last reported at 2015-Aug-27 20:30 UTC. Time now 2015-Aug-27 21:29 UTC.
Position N 66°26' E 012°59'.

Length 55 m; draft 5.5 m.

Type: Cargo ship. MMSI: 259260000.

Date/timePositionNaut miles runAvg speedWind from/ knotsBaromVisibWave heightAir tempDewpointWater temp
2015-Aug-27 20:30N 66°26' E 012°59'26 8.5
2015-Aug-27 17:26N 66°51' E 013°19'7 8.4
2015-Aug-27 16:33N 66°57' E 013°29'9 9.2
2015-Aug-27 15:32N 67°03' E 013°49'8 8.7
2015-Aug-27 14:34N 67°09' E 014°02'9 9.1
2015-Aug-27 13:34N 67°17' E 014°15'9 9.1
2015-Aug-27 12:33N 67°25' E 014°27'161 7.9
2015-Aug-26 16:17N 69°34' E 018°47'7 9.1
2015-Aug-26 15:33N 69°39' E 018°59'  
2015-Aug-24 01:16N 67°38' E 014°34'7 9.4
2015-Aug-24 00:33N 67°38' E 014°51'3 0.5
2015-Aug-23 18:33N 67°35' E 014°54'9 9.0
2015-Aug-23 17:34N 67°29' E 014°36'9 9.2
2015-Aug-23 16:33N 67°21' E 014°23'9 9.0
2015-Aug-23 15:33N 67°14' E 014°09'9 9.1
2015-Aug-23 14:34N 67°06' E 013°58'9 8.9
2015-Aug-23 13:34N 67°00' E 013°40'8 8.2
2015-Aug-23 12:33N 66°54' E 013°26'26 8.6
2015-Aug-23 09:33N 66°31' E 012°58'6 2.5
2015-Aug-23 07:07N 66°25' E 012°57'4 7.9
2015-Aug-23 06:33N 66°20' E 012°57'69 8.2
2015-Aug-22 22:06N 65°16' E 011°56'5 9.2
2015-Aug-22 21:33N 65°11' E 011°50'6 5.4
2015-Aug-22 20:32N 65°07' E 011°41'0 0.0
2015-Aug-22 19:33N 65°07' E 011°41'3 3.3
2015-Aug-22 18:33N 65°05' E 011°47'9 9.3
2015-Aug-22 17:33N 64°58' E 011°33'10 9.6
2015-Aug-22 16:34N 64°52' E 011°16'10 9.8
2015-Aug-22 15:33N 64°45' E 010°59'48 8.8
2015-Aug-22 10:06N 64°03' E 010°03'5 9.2
2015-Aug-22 09:33N 63°59' E 009°56'6 6.3
2015-Aug-22 08:34N 63°53' E 009°52'0 0.0
2015-Aug-22 07:33N 63°53' E 009°52'0 0.0
2015-Aug-22 06:33N 63°53' E 009°52'0 0.0
2015-Aug-22 05:33N 63°53' E 009°52'0 0.0
2015-Aug-22 04:33N 63°53' E 009°52'0 0.0
2015-Aug-22 03:33N 63°53' E 009°52'0 0.0
2015-Aug-22 02:33N 63°53' E 009°52'0 0.0
2015-Aug-22 01:34N 63°53' E 009°52'0 0.0
2015-Aug-22 00:33N 63°53' E 009°52'0 0.0
2015-Aug-21 23:33N 63°53' E 009°52'0 0.0
2015-Aug-21 22:33N 63°53' E 009°52'0 0.0
2015-Aug-21 21:33N 63°53' E 009°52'0 0.0
2015-Aug-21 20:33N 63°53' E 009°52'0 0.0
2015-Aug-21 19:33N 63°53' E 009°52'0 0.0
2015-Aug-21 18:33N 63°53' E 009°52'0 0.0
2015-Aug-21 17:33N 63°53' E 009°52'0 0.0
2015-Aug-21 16:33N 63°53' E 009°52'0 0.0
2015-Aug-21 15:33N 63°53' E 009°52'0 0.0
2015-Aug-21 14:33N 63°53' E 009°52'1 1.1
2015-Aug-21 13:33N 63°54' E 009°50'6 6.1
2015-Aug-21 12:33N 63°52' E 009°37'2 1.7
2015-Aug-21 11:33N 63°51' E 009°38'5 5.2
2015-Aug-21 10:33N 63°45' E 009°40'3 2.5
2015-Aug-21 09:34N 63°46' E 009°46'0 0.0
2015-Aug-21 08:33N 63°46' E 009°46'0 0.0
2015-Aug-21 07:33N 63°46' E 009°46'0 0.0
2015-Aug-21 06:33N 63°46' E 009°46'0 0.0
2015-Aug-21 05:33N 63°46' E 009°46'0 0.0
2015-Aug-21 04:33N 63°46' E 009°46'0 0.0
2015-Aug-21 03:33N 63°46' E 009°46'0 0.0
2015-Aug-21 02:33N 63°46' E 009°46'0 0.0
2015-Aug-21 01:33N 63°46' E 009°46'0 0.0
2015-Aug-21 00:33N 63°46' E 009°46'0 0.0
2015-Aug-20 23:33N 63°46' E 009°46'0 0.0
2015-Aug-20 22:33N 63°46' E 009°46'0 0.0
2015-Aug-20 21:33N 63°46' E 009°46'0 0.0
2015-Aug-20 20:34N 63°46' E 009°46'0 0.0
2015-Aug-20 19:33N 63°46' E 009°46'0 0.0
2015-Aug-20 18:34N 63°46' E 009°46'0 0.0
2015-Aug-20 17:34N 63°46' E 009°46'0 0.0
2015-Aug-20 16:33N 63°46' E 009°46'0 0.0
2015-Aug-20 15:33N 63°46' E 009°46'2 2.0
2015-Aug-20 14:33N 63°45' E 009°41'4 3.9
2015-Aug-20 13:33N 63°48' E 009°35'7 6.5
2015-Aug-20 12:33N 63°52' E 009°46'0 0.0
2015-Aug-20 11:33N 63°52' E 009°46'0 0.0
2015-Aug-20 10:33N 63°52' E 009°46'0 0.0
2015-Aug-20 09:34N 63°52' E 009°46'0 0.0
2015-Aug-20 08:33N 63°52' E 009°46'0 0.1
2015-Aug-20 07:33N 63°52' E 009°46'0 0.0
2015-Aug-20 06:34N 63°52' E 009°46'3 2.9
2015-Aug-20 05:33N 63°53' E 009°52'0 0.0
2015-Aug-20 04:33N 63°53' E 009°52'0 0.0
2015-Aug-20 03:33N 63°53' E 009°52'0 0.0
2015-Aug-20 02:33N 63°53' E 009°52'0 0.0
2015-Aug-20 01:34N 63°53' E 009°52'0 0.0
2015-Aug-20 00:34N 63°53' E 009°52'0 0.0
2015-Aug-19 23:33N 63°53' E 009°52'0 0.0
2015-Aug-19 22:34N 63°53' E 009°52'0 0.0
2015-Aug-19 21:33N 63°53' E 009°52'0 0.0
2015-Aug-19 20:33N 63°53' E 009°52'3 3.3
2015-Aug-19 19:33N 63°56' E 009°54'3 0.7
2015-Aug-19 14:30N 63°60' E 009°56'54 5.5
2015-Aug-19 04:33N 64°46' E 011°02'9 9.1
2015-Aug-19 03:33N 64°52' E 011°17'9 8.9
2015-Aug-19 02:33N 64°58' E 011°34'0 0.4
2015-Aug-19 01:33N 64°58' E 011°33'5 4.8
2015-Aug-19 00:33N 64°57' E 011°22'3 2.9
2015-Aug-18 23:33N 64°59' E 011°26'9 8.8
2015-Aug-18 22:31N 65°04' E 011°44'4 4.5
2015-Aug-18 21:33N 65°08' E 011°41'0 0.4
2015-Aug-18 20:33N 65°08' E 011°41'10 9.2
2015-Aug-18 19:28N 65°16' E 011°56'59 8.5
2015-Aug-18 12:33N 66°12' E 012°38'6 3.0
2015-Aug-18 10:33N 66°15' E 012°25'10 9.2
2015-Aug-18 09:31N 66°19' E 012°46'8 8.6
2015-Aug-18 08:33N 66°25' E 012°59'32 8.0
2015-Aug-18 04:33N 66°55' E 013°29'3 8.3
2015-Aug-18 04:11N 66°58' E 013°31'0 9.8
2015-Aug-18 04:08N 66°58' E 013°33'5 9.3
2015-Aug-18 03:33N 67°01' E 013°44'9 8.9
2015-Aug-18 02:34N 67°07' E 014°00'9 8.8
2015-Aug-18 01:34N 67°15' E 014°11'9 8.9
2015-Aug-18 00:33N 67°22' E 014°25'9 8.8
2015-Aug-17 23:33N 67°31' E 014°22'  
Track history (hours):
 
Tides and Currents Weather Stations Pressure Air Temp Water Temp Dewpoint Dewpoint Depression Visibility Wind Speed Wind Dir Waves Ship Positions

Biotrans

Last reported at 2015-Aug-27 20:30 UTC. Time now 2015-Aug-27 21:29 UTC.
Position N 66°26' E 012°59'.

Length 55 m; draft 5.5 m.

Type: Cargo ship. MMSI: 259260000.

Date/timePositionNaut miles runAvg speedWind from/ knotsBaromVisibWave heightAir tempDewpointWater temp
2015-Aug-27 20:30N 66°26' E 012°59'26 8.5
2015-Aug-27 17:26N 66°51' E 013°19'7 8.4
2015-Aug-27 16:33N 66°57' E 013°29'9 9.2
2015-Aug-27 15:32N 67°03' E 013°49'8 8.7
2015-Aug-27 14:34N 67°09' E 014°02'9 9.1
2015-Aug-27 13:34N 67°17' E 014°15'9 9.1
2015-Aug-27 12:33N 67°25' E 014°27'161 7.9
2015-Aug-26 16:17N 69°34' E 018°47'7 9.1
2015-Aug-26 15:33N 69°39' E 018°59'  
2015-Aug-24 01:16N 67°38' E 014°34'7 9.4
2015-Aug-24 00:33N 67°38' E 014°51'3 0.5
2015-Aug-23 18:33N 67°35' E 014°54'9 9.0
2015-Aug-23 17:34N 67°29' E 014°36'9 9.2
2015-Aug-23 16:33N 67°21' E 014°23'9 9.0
2015-Aug-23 15:33N 67°14' E 014°09'9 9.1
2015-Aug-23 14:34N 67°06' E 013°58'9 8.9
2015-Aug-23 13:34N 67°00' E 013°40'8 8.2
2015-Aug-23 12:33N 66°54' E 013°26'26 8.6
2015-Aug-23 09:33N 66°31' E 012°58'6 2.5
2015-Aug-23 07:07N 66°25' E 012°57'4 7.9
2015-Aug-23 06:33N 66°20' E 012°57'69 8.2
2015-Aug-22 22:06N 65°16' E 011°56'5 9.2
2015-Aug-22 21:33N 65°11' E 011°50'6 5.4
2015-Aug-22 20:32N 65°07' E 011°41'0 0.0
2015-Aug-22 19:33N 65°07' E 011°41'3 3.3
2015-Aug-22 18:33N 65°05' E 011°47'9 9.3
2015-Aug-22 17:33N 64°58' E 011°33'10 9.6
2015-Aug-22 16:34N 64°52' E 011°16'10 9.8
2015-Aug-22 15:33N 64°45' E 010°59'48 8.8
2015-Aug-22 10:06N 64°03' E 010°03'5 9.2
2015-Aug-22 09:33N 63°59' E 009°56'6 6.3
2015-Aug-22 08:34N 63°53' E 009°52'0 0.0
2015-Aug-22 07:33N 63°53' E 009°52'0 0.0
2015-Aug-22 06:33N 63°53' E 009°52'0 0.0
2015-Aug-22 05:33N 63°53' E 009°52'0 0.0
2015-Aug-22 04:33N 63°53' E 009°52'0 0.0
2015-Aug-22 03:33N 63°53' E 009°52'0 0.0
2015-Aug-22 02:33N 63°53' E 009°52'0 0.0
2015-Aug-22 01:34N 63°53' E 009°52'0 0.0
2015-Aug-22 00:33N 63°53' E 009°52'0 0.0
2015-Aug-21 23:33N 63°53' E 009°52'0 0.0
2015-Aug-21 22:33N 63°53' E 009°52'0 0.0
2015-Aug-21 21:33N 63°53' E 009°52'0 0.0
2015-Aug-21 20:33N 63°53' E 009°52'0 0.0
2015-Aug-21 19:33N 63°53' E 009°52'0 0.0
2015-Aug-21 18:33N 63°53' E 009°52'0 0.0
2015-Aug-21 17:33N 63°53' E 009°52'0 0.0
2015-Aug-21 16:33N 63°53' E 009°52'0 0.0
2015-Aug-21 15:33N 63°53' E 009°52'0 0.0
2015-Aug-21 14:33N 63°53' E 009°52'1 1.1
2015-Aug-21 13:33N 63°54' E 009°50'6 6.1
2015-Aug-21 12:33N 63°52' E 009°37'2 1.7
2015-Aug-21 11:33N 63°51' E 009°38'5 5.2
2015-Aug-21 10:33N 63°45' E 009°40'3 2.5
2015-Aug-21 09:34N 63°46' E 009°46'0 0.0
2015-Aug-21 08:33N 63°46' E 009°46'0 0.0
2015-Aug-21 07:33N 63°46' E 009°46'0 0.0
2015-Aug-21 06:33N 63°46' E 009°46'0 0.0
2015-Aug-21 05:33N 63°46' E 009°46'0 0.0
2015-Aug-21 04:33N 63°46' E 009°46'0 0.0
2015-Aug-21 03:33N 63°46' E 009°46'0 0.0
2015-Aug-21 02:33N 63°46' E 009°46'0 0.0
2015-Aug-21 01:33N 63°46' E 009°46'0 0.0
2015-Aug-21 00:33N 63°46' E 009°46'0 0.0
2015-Aug-20 23:33N 63°46' E 009°46'0 0.0
2015-Aug-20 22:33N 63°46' E 009°46'0 0.0
2015-Aug-20 21:33N 63°46' E 009°46'0 0.0
2015-Aug-20 20:34N 63°46' E 009°46'0 0.0
2015-Aug-20 19:33N 63°46' E 009°46'0 0.0
2015-Aug-20 18:34N 63°46' E 009°46'0 0.0
2015-Aug-20 17:34N 63°46' E 009°46'0 0.0
2015-Aug-20 16:33N 63°46' E 009°46'0 0.0
2015-Aug-20 15:33N 63°46' E 009°46'2 2.0
2015-Aug-20 14:33N 63°45' E 009°41'4 3.9
2015-Aug-20 13:33N 63°48' E 009°35'7 6.5
2015-Aug-20 12:33N 63°52' E 009°46'0 0.0
2015-Aug-20 11:33N 63°52' E 009°46'0 0.0
2015-Aug-20 10:33N 63°52' E 009°46'0 0.0
2015-Aug-20 09:34N 63°52' E 009°46'0 0.0
2015-Aug-20 08:33N 63°52' E 009°46'0 0.1
2015-Aug-20 07:33N 63°52' E 009°46'0 0.0
2015-Aug-20 06:34N 63°52' E 009°46'3 2.9
2015-Aug-20 05:33N 63°53' E 009°52'0 0.0
2015-Aug-20 04:33N 63°53' E 009°52'0 0.0
2015-Aug-20 03:33N 63°53' E 009°52'0 0.0
2015-Aug-20 02:33N 63°53' E 009°52'0 0.0
2015-Aug-20 01:34N 63°53' E 009°52'0 0.0
2015-Aug-20 00:34N 63°53' E 009°52'0 0.0
2015-Aug-19 23:33N 63°53' E 009°52'0 0.0
2015-Aug-19 22:34N 63°53' E 009°52'0 0.0
2015-Aug-19 21:33N 63°53' E 009°52'0 0.0
2015-Aug-19 20:33N 63°53' E 009°52'3 3.3
2015-Aug-19 19:33N 63°56' E 009°54'3 0.7
2015-Aug-19 14:30N 63°60' E 009°56'54 5.5
2015-Aug-19 04:33N 64°46' E 011°02'9 9.1
2015-Aug-19 03:33N 64°52' E 011°17'9 8.9
2015-Aug-19 02:33N 64°58' E 011°34'0 0.4
2015-Aug-19 01:33N 64°58' E 011°33'5 4.8
2015-Aug-19 00:33N 64°57' E 011°22'3 2.9
2015-Aug-18 23:33N 64°59' E 011°26'9 8.8
2015-Aug-18 22:31N 65°04' E 011°44'4 4.5
2015-Aug-18 21:33N 65°08' E 011°41'0 0.4
2015-Aug-18 20:33N 65°08' E 011°41'10 9.2
2015-Aug-18 19:28N 65°16' E 011°56'59 8.5
2015-Aug-18 12:33N 66°12' E 012°38'6 3.0
2015-Aug-18 10:33N 66°15' E 012°25'10 9.2
2015-Aug-18 09:31N 66°19' E 012°46'8 8.6
2015-Aug-18 08:33N 66°25' E 012°59'32 8.0
2015-Aug-18 04:33N 66°55' E 013°29'3 8.3
2015-Aug-18 04:11N 66°58' E 013°31'0 9.8
2015-Aug-18 04:08N 66°58' E 013°33'5 9.3
2015-Aug-18 03:33N 67°01' E 013°44'9 8.9
2015-Aug-18 02:34N 67°07' E 014°00'9 8.8
2015-Aug-18 01:34N 67°15' E 014°11'9 8.9
2015-Aug-18 00:33N 67°22' E 014°25'9 8.8
2015-Aug-17 23:33N 67°31' E 014°22'  

Dump ship's entire track history